sensor_id;sensor_type;location;lat;lon;timestamp;P1;durP1;ratioP1;P2;durP2;ratioP2
64857;SDS011;51335;51.148;6.950;2023-04-24T00:00:02;1.58;;;0.80;;
64857;SDS011;51335;51.148;6.950;2023-04-24T00:00:33;1.65;;;0.80;;
64857;SDS011;51335;51.148;6.950;2023-04-24T00:01:03;1.00;;;0.90;;
64857;SDS011;51335;51.148;6.950;2023-04-24T00:01:34;1.27;;;1.00;;
64857;SDS011;51335;51.148;6.950;2023-04-24T00:02:04;2.55;;;0.80;;
64857;SDS011;51335;51.148;6.950;2023-04-24T00:02:34;1.88;;;0.90;;
64857;SDS011;51335;51.148;6.950;2023-04-24T00:03:05;3.22;;;0.93;;
64857;SDS011;51335;51.148;6.950;2023-04-24T00:03:36;1.00;;;0.90;;
64857;SDS011;51335;51.148;6.950;2023-04-24T00:04:06;0.98;;;0.90;;
64857;SDS011;51335;51.148;6.950;2023-04-24T00:04:37;1.55;;;1.10;;
64857;SDS011;51335;51.148;6.950;2023-04-24T00:05:07;2.38;;;0.90;;
64857;SDS011;51335;51.148;6.950;2023-04-24T00:05:38;1.52;;;0.85;;
64857;SDS011;51335;51.148;6.950;2023-04-24T00:06:08;1.65;;;0.90;;
64857;SDS011;51335;51.148;6.950;2023-04-24T00:06:38;1.23;;;0.88;;
64857;SDS011;51335;51.148;6.950;2023-04-24T00:07:09;2.17;;;0.90;;
64857;SDS011;51335;51.148;6.950;2023-04-24T00:07:39;2.03;;;0.80;;
64857;SDS011;51335;51.148;6.950;2023-04-24T00:08:13;0.80;;;0.80;;
64857;SDS011;51335;51.148;6.950;2023-04-24T00:08:43;1.67;;;1.23;;
64857;SDS011;51335;51.148;6.950;2023-04-24T00:09:13;1.13;;;0.77;;
64857;SDS011;51335;51.148;6.950;2023-04-24T00:09:44;1.23;;;0.90;;
64857;SDS011;51335;51.148;6.950;2023-04-24T00:10:14;1.95;;;0.80;;
64857;SDS011;51335;51.148;6.950;2023-04-24T00:10:44;1.67;;;0.90;;
64857;SDS011;51335;51.148;6.950;2023-04-24T00:11:16;1.05;;;0.90;;
64857;SDS011;51335;51.148;6.950;2023-04-24T00:11:46;1.05;;;0.80;;
64857;SDS011;51335;51.148;6.950;2023-04-24T00:12:16;0.95;;;0.82;;
64857;SDS011;51335;51.148;6.950;2023-04-24T00:12:46;3.28;;;1.00;;
64857;SDS011;51335;51.148;6.950;2023-04-24T00:13:17;2.72;;;1.00;;
64857;SDS011;51335;51.148;6.950;2023-04-24T00:13:48;1.60;;;1.02;;
64857;SDS011;51335;51.148;6.950;2023-04-24T00:14:18;2.58;;;1.10;;
64857;SDS011;51335;51.148;6.950;2023-04-24T00:14:48;3.03;;;1.38;;
64857;SDS011;51335;51.148;6.950;2023-04-24T00:15:18;1.00;;;0.90;;
64857;SDS011;51335;51.148;6.950;2023-04-24T00:15:49;0.77;;;0.77;;
64857;SDS011;51335;51.148;6.950;2023-04-24T00:16:19;1.15;;;0.90;;
64857;SDS011;51335;51.148;6.950;2023-04-24T00:16:49;2.80;;;1.00;;
64857;SDS011;51335;51.148;6.950;2023-04-24T00:17:19;1.67;;;1.00;;
64857;SDS011;51335;51.148;6.950;2023-04-24T00:17:50;2.08;;;0.82;;
64857;SDS011;51335;51.148;6.950;2023-04-24T00:18:20;1.20;;;1.10;;
64857;SDS011;51335;51.148;6.950;2023-04-24T00:18:50;1.13;;;0.90;;
64857;SDS011;51335;51.148;6.950;2023-04-24T00:19:21;1.83;;;1.17;;
64857;SDS011;51335;51.148;6.950;2023-04-24T00:19:51;1.75;;;1.10;;
64857;SDS011;51335;51.148;6.950;2023-04-24T00:20:21;1.42;;;0.95;;
64857;SDS011;51335;51.148;6.950;2023-04-24T00:20:51;1.75;;;1.00;;
64857;SDS011;51335;51.148;6.950;2023-04-24T00:21:22;1.08;;;0.90;;
64857;SDS011;51335;51.148;6.950;2023-04-24T00:21:52;2.10;;;1.10;;
64857;SDS011;51335;51.148;6.950;2023-04-24T00:22:22;3.03;;;1.10;;
64857;SDS011;51335;51.148;6.950;2023-04-24T00:22:53;1.30;;;1.05;;
64857;SDS011;51335;51.148;6.950;2023-04-24T00:23:23;3.42;;;1.10;;
64857;SDS011;51335;51.148;6.950;2023-04-24T00:23:53;2.63;;;1.10;;
64857;SDS011;51335;51.148;6.950;2023-04-24T00:24:23;1.27;;;1.05;;
64857;SDS011;51335;51.148;6.950;2023-04-24T00:24:54;2.22;;;1.10;;
64857;SDS011;51335;51.148;6.950;2023-04-24T00:25:24;3.08;;;1.20;;
64857;SDS011;51335;51.148;6.950;2023-04-24T00:25:54;1.65;;;0.90;;
64857;SDS011;51335;51.148;6.950;2023-04-24T00:26:25;1.40;;;1.10;;
64857;SDS011;51335;51.148;6.950;2023-04-24T00:26:55;1.00;;;0.93;;
64857;SDS011;51335;51.148;6.950;2023-04-24T00:27:25;1.77;;;1.02;;
64857;SDS011;51335;51.148;6.950;2023-04-24T00:27:56;1.45;;;1.10;;
64857;SDS011;51335;51.148;6.950;2023-04-24T00:28:26;3.92;;;1.10;;
64857;SDS011;51335;51.148;6.950;2023-04-24T00:28:56;2.00;;;1.02;;
64857;SDS011;51335;51.148;6.950;2023-04-24T00:29:26;3.13;;;1.27;;
64857;SDS011;51335;51.148;6.950;2023-04-24T00:29:57;1.20;;;1.00;;
64857;SDS011;51335;51.148;6.950;2023-04-24T00:30:27;2.20;;;1.20;;
64857;SDS011;51335;51.148;6.950;2023-04-24T00:30:57;1.27;;;1.10;;
64857;SDS011;51335;51.148;6.950;2023-04-24T00:31:27;4.93;;;1.10;;
64857;SDS011;51335;51.148;6.950;2023-04-24T00:31:58;3.13;;;1.17;;
64857;SDS011;51335;51.148;6.950;2023-04-24T00:32:28;1.30;;;1.00;;
64857;SDS011;51335;51.148;6.950;2023-04-24T00:32:58;1.85;;;1.00;;
64857;SDS011;51335;51.148;6.950;2023-04-24T00:33:28;1.30;;;1.10;;
64857;SDS011;51335;51.148;6.950;2023-04-24T00:33:59;1.48;;;1.00;;
64857;SDS011;51335;51.148;6.950;2023-04-24T00:34:29;1.75;;;1.00;;
64857;SDS011;51335;51.148;6.950;2023-04-24T00:34:59;2.55;;;0.90;;
64857;SDS011;51335;51.148;6.950;2023-04-24T00:35:30;1.65;;;1.10;;
64857;SDS011;51335;51.148;6.950;2023-04-24T00:36:00;2.00;;;1.00;;
64857;SDS011;51335;51.148;6.950;2023-04-24T00:36:30;2.30;;;1.20;;
64857;SDS011;51335;51.148;6.950;2023-04-24T00:37:01;1.42;;;1.10;;
64857;SDS011;51335;51.148;6.950;2023-04-24T00:37:31;1.38;;;1.10;;
64857;SDS011;51335;51.148;6.950;2023-04-24T00:38:01;1.35;;;0.98;;
64857;SDS011;51335;51.148;6.950;2023-04-24T00:38:32;2.45;;;1.00;;
64857;SDS011;51335;51.148;6.950;2023-04-24T00:39:02;1.45;;;0.98;;
64857;SDS011;51335;51.148;6.950;2023-04-24T00:39:32;1.20;;;0.93;;
64857;SDS011;51335;51.148;6.950;2023-04-24T00:40:03;2.72;;;1.02;;
64857;SDS011;51335;51.148;6.950;2023-04-24T00:40:33;2.75;;;1.00;;
64857;SDS011;51335;51.148;6.950;2023-04-24T00:41:04;2.03;;;1.27;;
64857;SDS011;51335;51.148;6.950;2023-04-24T00:41:34;3.38;;;1.00;;
64857;SDS011;51335;51.148;6.950;2023-04-24T00:42:06;1.15;;;1.00;;
64857;SDS011;51335;51.148;6.950;2023-04-24T00:42:37;1.35;;;1.00;;
64857;SDS011;51335;51.148;6.950;2023-04-24T00:43:07;2.20;;;0.90;;
64857;SDS011;51335;51.148;6.950;2023-04-24T00:43:37;2.35;;;0.90;;
64857;SDS011;51335;51.148;6.950;2023-04-24T00:44:08;3.25;;;1.00;;
64857;SDS011;51335;51.148;6.950;2023-04-24T00:44:38;2.05;;;1.02;;
64857;SDS011;51335;51.148;6.950;2023-04-24T00:45:09;3.33;;;1.20;;
64857;SDS011;51335;51.148;6.950;2023-04-24T00:45:39;3.42;;;1.00;;
64857;SDS011;51335;51.148;6.950;2023-04-24T00:46:10;2.33;;;1.20;;
64857;SDS011;51335;51.148;6.950;2023-04-24T00:46:40;2.47;;;1.02;;
64857;SDS011;51335;51.148;6.950;2023-04-24T00:47:11;2.80;;;0.80;;
64857;SDS011;51335;51.148;6.950;2023-04-24T00:47:42;3.35;;;1.00;;
64857;SDS011;51335;51.148;6.950;2023-04-24T00:48:14;2.45;;;1.00;;
64857;SDS011;51335;51.148;6.950;2023-04-24T00:48:46;2.78;;;0.95;;
64857;SDS011;51335;51.148;6.950;2023-04-24T00:49:16;2.30;;;1.00;;
64857;SDS011;51335;51.148;6.950;2023-04-24T00:49:47;1.55;;;1.00;;
64857;SDS011;51335;51.148;6.950;2023-04-24T00:50:17;1.63;;;1.00;;
64857;SDS011;51335;51.148;6.950;2023-04-24T00:50:48;2.83;;;1.00;;
64857;SDS011;51335;51.148;6.950;2023-04-24T00:51:18;2.17;;;1.00;;
64857;SDS011;51335;51.148;6.950;2023-04-24T00:51:49;2.95;;;0.95;;
64857;SDS011;51335;51.148;6.950;2023-04-24T00:52:19;2.83;;;1.10;;
64857;SDS011;51335;51.148;6.950;2023-04-24T00:52:50;1.58;;;0.98;;
64857;SDS011;51335;51.148;6.950;2023-04-24T00:53:20;1.77;;;1.10;;
64857;SDS011;51335;51.148;6.950;2023-04-24T00:53:50;1.35;;;1.00;;
64857;SDS011;51335;51.148;6.950;2023-04-24T00:54:20;2.88;;;1.10;;
64857;SDS011;51335;51.148;6.950;2023-04-24T00:54:51;1.55;;;1.00;;
64857;SDS011;51335;51.148;6.950;2023-04-24T00:55:21;2.03;;;1.00;;
64857;SDS011;51335;51.148;6.950;2023-04-24T00:55:51;3.78;;;1.35;;
64857;SDS011;51335;51.148;6.950;2023-04-24T00:56:22;1.40;;;1.05;;
64857;SDS011;51335;51.148;6.950;2023-04-24T00:56:52;1.58;;;0.90;;
64857;SDS011;51335;51.148;6.950;2023-04-24T00:57:23;1.13;;;1.00;;
64857;SDS011;51335;51.148;6.950;2023-04-24T00:57:53;1.25;;;0.85;;
64857;SDS011;51335;51.148;6.950;2023-04-24T00:58:24;1.80;;;1.00;;
64857;SDS011;51335;51.148;6.950;2023-04-24T00:58:55;2.80;;;0.80;;
64857;SDS011;51335;51.148;6.950;2023-04-24T00:59:25;1.23;;;1.00;;
64857;SDS011;51335;51.148;6.950;2023-04-24T00:59:56;2.05;;;1.00;;
64857;SDS011;51335;51.148;6.950;2023-04-24T01:00:26;1.52;;;0.93;;
64857;SDS011;51335;51.148;6.950;2023-04-24T01:00:57;2.55;;;1.05;;
64857;SDS011;51335;51.148;6.950;2023-04-24T01:01:28;2.60;;;1.10;;
64857;SDS011;51335;51.148;6.950;2023-04-24T01:01:59;3.25;;;1.20;;
64857;SDS011;51335;51.148;6.950;2023-04-24T01:02:29;3.58;;;1.00;;
64857;SDS011;51335;51.148;6.950;2023-04-24T01:03:00;1.10;;;1.00;;
64857;SDS011;51335;51.148;6.950;2023-04-24T01:03:34;2.75;;;0.90;;
64857;SDS011;51335;51.148;6.950;2023-04-24T01:04:04;1.63;;;0.88;;
64857;SDS011;51335;51.148;6.950;2023-04-24T01:04:35;2.55;;;0.90;;
64857;SDS011;51335;51.148;6.950;2023-04-24T01:05:06;1.58;;;1.00;;
64857;SDS011;51335;51.148;6.950;2023-04-24T01:05:37;2.80;;;1.00;;
64857;SDS011;51335;51.148;6.950;2023-04-24T01:06:07;2.78;;;1.30;;
64857;SDS011;51335;51.148;6.950;2023-04-24T01:06:40;3.83;;;1.13;;
64857;SDS011;51335;51.148;6.950;2023-04-24T01:07:11;2.13;;;1.00;;
64857;SDS011;51335;51.148;6.950;2023-04-24T01:07:41;2.30;;;1.08;;
64857;SDS011;51335;51.148;6.950;2023-04-24T01:08:14;1.48;;;1.00;;
64857;SDS011;51335;51.148;6.950;2023-04-24T01:08:45;2.38;;;1.10;;
64857;SDS011;51335;51.148;6.950;2023-04-24T01:09:17;2.63;;;0.95;;
64857;SDS011;51335;51.148;6.950;2023-04-24T01:09:48;2.35;;;1.10;;
64857;SDS011;51335;51.148;6.950;2023-04-24T01:10:19;2.17;;;1.20;;
64857;SDS011;51335;51.148;6.950;2023-04-24T01:10:53;2.10;;;0.98;;
64857;SDS011;51335;51.148;6.950;2023-04-24T01:11:24;1.88;;;1.15;;
64857;SDS011;51335;51.148;6.950;2023-04-24T01:11:54;1.90;;;1.10;;
64857;SDS011;51335;51.148;6.950;2023-04-24T01:12:25;1.25;;;0.90;;
64857;SDS011;51335;51.148;6.950;2023-04-24T01:12:55;2.08;;;1.05;;
64857;SDS011;51335;51.148;6.950;2023-04-24T01:13:25;2.33;;;1.20;;
64857;SDS011;51335;51.148;6.950;2023-04-24T01:13:56;1.92;;;1.20;;
64857;SDS011;51335;51.148;6.950;2023-04-24T01:14:26;2.25;;;1.10;;
64857;SDS011;51335;51.148;6.950;2023-04-24T01:14:57;3.28;;;1.02;;
64857;SDS011;51335;51.148;6.950;2023-04-24T01:15:27;2.63;;;1.40;;
64857;SDS011;51335;51.148;6.950;2023-04-24T01:15:58;2.85;;;1.10;;
64857;SDS011;51335;51.148;6.950;2023-04-24T01:16:28;1.58;;;1.00;;
64857;SDS011;51335;51.148;6.950;2023-04-24T01:16:58;2.53;;;1.30;;
64857;SDS011;51335;51.148;6.950;2023-04-24T01:17:29;2.20;;;1.20;;
64857;SDS011;51335;51.148;6.950;2023-04-24T01:17:59;3.05;;;1.10;;
64857;SDS011;51335;51.148;6.950;2023-04-24T01:18:30;1.95;;;1.15;;
64857;SDS011;51335;51.148;6.950;2023-04-24T01:19:00;5.18;;;1.63;;
64857;SDS011;51335;51.148;6.950;2023-04-24T01:19:31;3.97;;;1.13;;
64857;SDS011;51335;51.148;6.950;2023-04-24T01:20:01;2.13;;;1.10;;
64857;SDS011;51335;51.148;6.950;2023-04-24T01:20:31;1.75;;;1.20;;
64857;SDS011;51335;51.148;6.950;2023-04-24T01:21:03;2.75;;;1.20;;
64857;SDS011;51335;51.148;6.950;2023-04-24T01:21:34;1.70;;;1.10;;
64857;SDS011;51335;51.148;6.950;2023-04-24T01:22:13;3.72;;;1.10;;
64857;SDS011;51335;51.148;6.950;2023-04-24T01:22:44;1.92;;;1.15;;
64857;SDS011;51335;51.148;6.950;2023-04-24T01:23:14;1.50;;;1.20;;
64857;SDS011;51335;51.148;6.950;2023-04-24T01:23:45;2.47;;;1.20;;
64857;SDS011;51335;51.148;6.950;2023-04-24T01:24:15;3.20;;;1.38;;
64857;SDS011;51335;51.148;6.950;2023-04-24T01:24:46;3.45;;;1.60;;
64857;SDS011;51335;51.148;6.950;2023-04-24T01:25:16;1.65;;;1.20;;
64857;SDS011;51335;51.148;6.950;2023-04-24T01:25:46;1.95;;;1.30;;
64857;SDS011;51335;51.148;6.950;2023-04-24T01:26:18;3.00;;;1.48;;
64857;SDS011;51335;51.148;6.950;2023-04-24T01:26:48;2.22;;;1.13;;
64857;SDS011;51335;51.148;6.950;2023-04-24T01:27:19;3.03;;;1.95;;
64857;SDS011;51335;51.148;6.950;2023-04-24T01:27:49;2.67;;;1.35;;
64857;SDS011;51335;51.148;6.950;2023-04-24T01:28:19;2.60;;;1.48;;
64857;SDS011;51335;51.148;6.950;2023-04-24T01:28:50;2.28;;;1.50;;
64857;SDS011;51335;51.148;6.950;2023-04-24T01:29:21;2.30;;;1.50;;
64857;SDS011;51335;51.148;6.950;2023-04-24T01:29:51;4.63;;;1.60;;
64857;SDS011;51335;51.148;6.950;2023-04-24T01:30:21;1.85;;;1.30;;
64857;SDS011;51335;51.148;6.950;2023-04-24T01:30:52;2.47;;;1.48;;
64857;SDS011;51335;51.148;6.950;2023-04-24T01:31:22;2.97;;;1.33;;
64857;SDS011;51335;51.148;6.950;2023-04-24T01:31:53;4.40;;;1.40;;
64857;SDS011;51335;51.148;6.950;2023-04-24T01:32:23;2.88;;;1.50;;
64857;SDS011;51335;51.148;6.950;2023-04-24T01:32:54;3.05;;;1.67;;
64857;SDS011;51335;51.148;6.950;2023-04-24T01:33:25;2.13;;;1.40;;
64857;SDS011;51335;51.148;6.950;2023-04-24T01:33:56;3.53;;;1.55;;
64857;SDS011;51335;51.148;6.950;2023-04-24T01:34:26;4.13;;;1.42;;
64857;SDS011;51335;51.148;6.950;2023-04-24T01:34:57;2.60;;;1.40;;
64857;SDS011;51335;51.148;6.950;2023-04-24T01:35:28;3.67;;;1.67;;
64857;SDS011;51335;51.148;6.950;2023-04-24T01:35:58;3.05;;;1.67;;
64857;SDS011;51335;51.148;6.950;2023-04-24T01:36:29;3.35;;;1.80;;
64857;SDS011;51335;51.148;6.950;2023-04-24T01:37:00;3.08;;;1.60;;
64857;SDS011;51335;51.148;6.950;2023-04-24T01:37:30;3.97;;;1.80;;
64857;SDS011;51335;51.148;6.950;2023-04-24T01:38:01;2.67;;;1.90;;
64857;SDS011;51335;51.148;6.950;2023-04-24T01:38:32;2.35;;;1.50;;
64857;SDS011;51335;51.148;6.950;2023-04-24T01:39:02;3.45;;;1.88;;
64857;SDS011;51335;51.148;6.950;2023-04-24T01:39:32;3.00;;;1.90;;
64857;SDS011;51335;51.148;6.950;2023-04-24T01:40:06;5.03;;;2.00;;
64857;SDS011;51335;51.148;6.950;2023-04-24T01:40:37;4.05;;;2.30;;
64857;SDS011;51335;51.148;6.950;2023-04-24T01:41:07;5.30;;;2.33;;
64857;SDS011;51335;51.148;6.950;2023-04-24T01:41:38;3.80;;;2.30;;
64857;SDS011;51335;51.148;6.950;2023-04-24T01:42:08;5.30;;;2.17;;
64857;SDS011;51335;51.148;6.950;2023-04-24T01:42:40;3.60;;;2.50;;
64857;SDS011;51335;51.148;6.950;2023-04-24T01:43:11;3.88;;;2.35;;
64857;SDS011;51335;51.148;6.950;2023-04-24T01:43:42;2.67;;;2.05;;
64857;SDS011;51335;51.148;6.950;2023-04-24T01:44:12;4.32;;;2.20;;
64857;SDS011;51335;51.148;6.950;2023-04-24T01:44:42;4.47;;;2.20;;
64857;SDS011;51335;51.148;6.950;2023-04-24T01:45:13;5.57;;;2.30;;
64857;SDS011;51335;51.148;6.950;2023-04-24T01:45:43;3.00;;;2.17;;
64857;SDS011;51335;51.148;6.950;2023-04-24T01:46:14;4.20;;;2.30;;
64857;SDS011;51335;51.148;6.950;2023-04-24T01:46:44;2.88;;;2.20;;
64857;SDS011;51335;51.148;6.950;2023-04-24T01:47:15;4.97;;;2.40;;
64857;SDS011;51335;51.148;6.950;2023-04-24T01:47:45;4.45;;;2.20;;
64857;SDS011;51335;51.148;6.950;2023-04-24T01:48:16;3.78;;;2.40;;
64857;SDS011;51335;51.148;6.950;2023-04-24T01:48:46;3.35;;;2.30;;
64857;SDS011;51335;51.148;6.950;2023-04-24T01:49:17;5.13;;;2.55;;
64857;SDS011;51335;51.148;6.950;2023-04-24T01:49:48;4.10;;;2.38;;
64857;SDS011;51335;51.148;6.950;2023-04-24T01:50:19;3.50;;;2.20;;
64857;SDS011;51335;51.148;6.950;2023-04-24T01:50:49;5.45;;;2.53;;
64857;SDS011;51335;51.148;6.950;2023-04-24T01:51:20;3.08;;;2.05;;
64857;SDS011;51335;51.148;6.950;2023-04-24T01:51:50;3.45;;;2.22;;
64857;SDS011;51335;51.148;6.950;2023-04-24T01:52:20;6.03;;;2.80;;
64857;SDS011;51335;51.148;6.950;2023-04-24T01:52:51;4.13;;;2.65;;
64857;SDS011;51335;51.148;6.950;2023-04-24T01:53:21;2.83;;;2.35;;
64857;SDS011;51335;51.148;6.950;2023-04-24T01:53:51;4.50;;;2.50;;
64857;SDS011;51335;51.148;6.950;2023-04-24T01:54:21;3.25;;;2.25;;
64857;SDS011;51335;51.148;6.950;2023-04-24T01:54:52;3.83;;;2.63;;
64857;SDS011;51335;51.148;6.950;2023-04-24T01:55:22;4.38;;;2.47;;
64857;SDS011;51335;51.148;6.950;2023-04-24T01:55:52;3.70;;;2.30;;
64857;SDS011;51335;51.148;6.950;2023-04-24T01:56:23;6.68;;;2.40;;
64857;SDS011;51335;51.148;6.950;2023-04-24T01:56:54;2.92;;;2.40;;
64857;SDS011;51335;51.148;6.950;2023-04-24T01:57:24;5.55;;;2.50;;
64857;SDS011;51335;51.148;6.950;2023-04-24T01:57:55;3.97;;;2.60;;
64857;SDS011;51335;51.148;6.950;2023-04-24T01:58:26;4.15;;;2.67;;
64857;SDS011;51335;51.148;6.950;2023-04-24T01:58:56;4.35;;;2.60;;
64857;SDS011;51335;51.148;6.950;2023-04-24T01:59:27;4.10;;;2.58;;
64857;SDS011;51335;51.148;6.950;2023-04-24T01:59:58;4.88;;;2.70;;
64857;SDS011;51335;51.148;6.950;2023-04-24T02:00:28;4.53;;;2.53;;
64857;SDS011;51335;51.148;6.950;2023-04-24T02:00:59;4.20;;;2.50;;
64857;SDS011;51335;51.148;6.950;2023-04-24T02:01:34;3.90;;;2.58;;
64857;SDS011;51335;51.148;6.950;2023-04-24T02:02:05;6.25;;;2.90;;
64857;SDS011;51335;51.148;6.950;2023-04-24T02:02:35;5.47;;;2.70;;
64857;SDS011;51335;51.148;6.950;2023-04-24T02:03:05;4.82;;;3.00;;
64857;SDS011;51335;51.148;6.950;2023-04-24T02:03:35;4.05;;;2.85;;
64857;SDS011;51335;51.148;6.950;2023-04-24T02:04:06;4.53;;;2.90;;
64857;SDS011;51335;51.148;6.950;2023-04-24T02:04:37;5.30;;;3.05;;
64857;SDS011;51335;51.148;6.950;2023-04-24T02:05:08;6.35;;;3.33;;
64857;SDS011;51335;51.148;6.950;2023-04-24T02:05:39;4.82;;;3.40;;
64857;SDS011;51335;51.148;6.950;2023-04-24T02:06:09;5.93;;;3.42;;
64857;SDS011;51335;51.148;6.950;2023-04-24T02:06:39;6.05;;;3.10;;
64857;SDS011;51335;51.148;6.950;2023-04-24T02:07:09;6.40;;;3.58;;
64857;SDS011;51335;51.148;6.950;2023-04-24T02:07:40;7.03;;;3.83;;
64857;SDS011;51335;51.148;6.950;2023-04-24T02:08:10;6.30;;;3.40;;
64857;SDS011;51335;51.148;6.950;2023-04-24T02:08:40;4.35;;;3.40;;
64857;SDS011;51335;51.148;6.950;2023-04-24T02:09:11;7.43;;;3.60;;
64857;SDS011;51335;51.148;6.950;2023-04-24T02:09:41;5.65;;;3.35;;
64857;SDS011;51335;51.148;6.950;2023-04-24T02:10:11;4.95;;;3.58;;
64857;SDS011;51335;51.148;6.950;2023-04-24T02:10:41;5.65;;;3.35;;
64857;SDS011;51335;51.148;6.950;2023-04-24T02:11:12;8.02;;;3.92;;
64857;SDS011;51335;51.148;6.950;2023-04-24T02:11:42;5.65;;;3.63;;
64857;SDS011;51335;51.148;6.950;2023-04-24T02:12:12;6.50;;;3.80;;
64857;SDS011;51335;51.148;6.950;2023-04-24T02:12:43;8.32;;;3.78;;
64857;SDS011;51335;51.148;6.950;2023-04-24T02:13:13;6.18;;;3.47;;
64857;SDS011;51335;51.148;6.950;2023-04-24T02:13:43;6.25;;;3.55;;
64857;SDS011;51335;51.148;6.950;2023-04-24T02:14:13;7.85;;;4.18;;
64857;SDS011;51335;51.148;6.950;2023-04-24T02:14:44;6.70;;;3.80;;
64857;SDS011;51335;51.148;6.950;2023-04-24T02:15:14;7.25;;;3.63;;
64857;SDS011;51335;51.148;6.950;2023-04-24T02:15:44;5.32;;;3.72;;
64857;SDS011;51335;51.148;6.950;2023-04-24T02:16:14;6.10;;;3.92;;
64857;SDS011;51335;51.148;6.950;2023-04-24T02:16:45;6.45;;;3.80;;
64857;SDS011;51335;51.148;6.950;2023-04-24T02:17:15;6.53;;;4.28;;
64857;SDS011;51335;51.148;6.950;2023-04-24T02:17:45;6.15;;;3.80;;
64857;SDS011;51335;51.148;6.950;2023-04-24T02:18:15;6.90;;;3.90;;
64857;SDS011;51335;51.148;6.950;2023-04-24T02:18:46;6.85;;;4.05;;
64857;SDS011;51335;51.148;6.950;2023-04-24T02:19:16;6.90;;;3.88;;
64857;SDS011;51335;51.148;6.950;2023-04-24T02:19:46;8.88;;;4.30;;
64857;SDS011;51335;51.148;6.950;2023-04-24T02:20:16;6.85;;;3.90;;
64857;SDS011;51335;51.148;6.950;2023-04-24T02:20:47;8.55;;;4.20;;
64857;SDS011;51335;51.148;6.950;2023-04-24T02:21:17;6.35;;;4.03;;
64857;SDS011;51335;51.148;6.950;2023-04-24T02:21:47;4.90;;;3.60;;
64857;SDS011;51335;51.148;6.950;2023-04-24T02:22:17;8.82;;;4.15;;
64857;SDS011;51335;51.148;6.950;2023-04-24T02:22:48;7.93;;;4.10;;
64857;SDS011;51335;51.148;6.950;2023-04-24T02:23:18;8.25;;;3.90;;
64857;SDS011;51335;51.148;6.950;2023-04-24T02:23:48;5.40;;;3.95;;
64857;SDS011;51335;51.148;6.950;2023-04-24T02:24:19;7.50;;;4.20;;
64857;SDS011;51335;51.148;6.950;2023-04-24T02:24:49;6.70;;;3.92;;
64857;SDS011;51335;51.148;6.950;2023-04-24T02:25:19;6.63;;;3.97;;
64857;SDS011;51335;51.148;6.950;2023-04-24T02:25:49;5.40;;;3.80;;
64857;SDS011;51335;51.148;6.950;2023-04-24T02:26:20;6.22;;;3.75;;
64857;SDS011;51335;51.148;6.950;2023-04-24T02:26:50;6.38;;;3.92;;
64857;SDS011;51335;51.148;6.950;2023-04-24T02:27:20;5.75;;;3.80;;
64857;SDS011;51335;51.148;6.950;2023-04-24T02:27:51;4.75;;;3.70;;
64857;SDS011;51335;51.148;6.950;2023-04-24T02:28:21;6.80;;;3.67;;
64857;SDS011;51335;51.148;6.950;2023-04-24T02:28:51;6.65;;;4.00;;
64857;SDS011;51335;51.148;6.950;2023-04-24T02:29:21;6.50;;;4.10;;
64857;SDS011;51335;51.148;6.950;2023-04-24T02:29:52;7.05;;;3.97;;
64857;SDS011;51335;51.148;6.950;2023-04-24T02:30:22;4.80;;;3.63;;
64857;SDS011;51335;51.148;6.950;2023-04-24T02:30:52;6.18;;;4.10;;
64857;SDS011;51335;51.148;6.950;2023-04-24T02:31:22;6.38;;;3.85;;
64857;SDS011;51335;51.148;6.950;2023-04-24T02:31:53;7.55;;;4.10;;
64857;SDS011;51335;51.148;6.950;2023-04-24T02:32:23;4.35;;;3.90;;
64857;SDS011;51335;51.148;6.950;2023-04-24T02:32:53;6.18;;;4.05;;
64857;SDS011;51335;51.148;6.950;2023-04-24T02:33:23;6.35;;;3.97;;
64857;SDS011;51335;51.148;6.950;2023-04-24T02:33:54;6.82;;;3.83;;
64857;SDS011;51335;51.148;6.950;2023-04-24T02:34:24;9.52;;;4.03;;
64857;SDS011;51335;51.148;6.950;2023-04-24T02:34:54;7.10;;;4.15;;
64857;SDS011;51335;51.148;6.950;2023-04-24T02:35:24;6.35;;;4.15;;
64857;SDS011;51335;51.148;6.950;2023-04-24T02:35:55;6.90;;;4.18;;
64857;SDS011;51335;51.148;6.950;2023-04-24T02:36:25;5.60;;;4.13;;
64857;SDS011;51335;51.148;6.950;2023-04-24T02:36:55;8.88;;;4.38;;
64857;SDS011;51335;51.148;6.950;2023-04-24T02:37:25;7.45;;;4.72;;
64857;SDS011;51335;51.148;6.950;2023-04-24T02:37:56;7.85;;;4.47;;
64857;SDS011;51335;51.148;6.950;2023-04-24T02:38:26;7.97;;;4.47;;
64857;SDS011;51335;51.148;6.950;2023-04-24T02:38:57;10.13;;;4.55;;
64857;SDS011;51335;51.148;6.950;2023-04-24T02:39:27;7.65;;;4.45;;
64857;SDS011;51335;51.148;6.950;2023-04-24T02:39:57;6.28;;;4.50;;
64857;SDS011;51335;51.148;6.950;2023-04-24T02:40:27;8.93;;;4.88;;
64857;SDS011;51335;51.148;6.950;2023-04-24T02:40:58;7.78;;;4.60;;
64857;SDS011;51335;51.148;6.950;2023-04-24T02:41:28;12.50;;;5.07;;
64857;SDS011;51335;51.148;6.950;2023-04-24T02:41:58;8.15;;;5.03;;
64857;SDS011;51335;51.148;6.950;2023-04-24T02:42:28;8.52;;;5.13;;
64857;SDS011;51335;51.148;6.950;2023-04-24T02:42:59;9.07;;;4.82;;
64857;SDS011;51335;51.148;6.950;2023-04-24T02:43:29;7.57;;;4.63;;
64857;SDS011;51335;51.148;6.950;2023-04-24T02:43:59;8.00;;;5.03;;
64857;SDS011;51335;51.148;6.950;2023-04-24T02:44:29;8.65;;;5.20;;
64857;SDS011;51335;51.148;6.950;2023-04-24T02:45:00;7.05;;;4.90;;
64857;SDS011;51335;51.148;6.950;2023-04-24T02:45:30;7.25;;;4.85;;
64857;SDS011;51335;51.148;6.950;2023-04-24T02:46:00;8.18;;;4.70;;
64857;SDS011;51335;51.148;6.950;2023-04-24T02:46:30;7.38;;;4.55;;
64857;SDS011;51335;51.148;6.950;2023-04-24T02:47:01;6.57;;;4.82;;
64857;SDS011;51335;51.148;6.950;2023-04-24T02:47:31;9.20;;;5.75;;
64857;SDS011;51335;51.148;6.950;2023-04-24T02:48:01;9.55;;;5.20;;
64857;SDS011;51335;51.148;6.950;2023-04-24T02:48:31;8.75;;;5.32;;
64857;SDS011;51335;51.148;6.950;2023-04-24T02:49:02;8.40;;;5.03;;
64857;SDS011;51335;51.148;6.950;2023-04-24T02:49:32;13.73;;;5.65;;
64857;SDS011;51335;51.148;6.950;2023-04-24T02:50:02;9.25;;;5.18;;
64857;SDS011;51335;51.148;6.950;2023-04-24T02:50:33;8.63;;;5.47;;
64857;SDS011;51335;51.148;6.950;2023-04-24T02:51:03;8.23;;;5.40;;
64857;SDS011;51335;51.148;6.950;2023-04-24T02:51:35;9.85;;;5.40;;
64857;SDS011;51335;51.148;6.950;2023-04-24T02:52:05;7.75;;;5.53;;
64857;SDS011;51335;51.148;6.950;2023-04-24T02:52:35;7.70;;;5.38;;
64857;SDS011;51335;51.148;6.950;2023-04-24T02:53:05;9.57;;;5.55;;
64857;SDS011;51335;51.148;6.950;2023-04-24T02:53:36;7.75;;;5.20;;
64857;SDS011;51335;51.148;6.950;2023-04-24T02:54:07;7.40;;;5.43;;
64857;SDS011;51335;51.148;6.950;2023-04-24T02:54:38;11.05;;;5.63;;
64857;SDS011;51335;51.148;6.950;2023-04-24T02:55:08;9.15;;;5.90;;
64857;SDS011;51335;51.148;6.950;2023-04-24T02:55:38;9.00;;;5.40;;
64857;SDS011;51335;51.148;6.950;2023-04-24T02:56:08;9.23;;;5.63;;
64857;SDS011;51335;51.148;6.950;2023-04-24T02:56:39;8.48;;;6.00;;
64857;SDS011;51335;51.148;6.950;2023-04-24T02:57:09;10.57;;;5.72;;
64857;SDS011;51335;51.148;6.950;2023-04-24T02:57:39;10.18;;;6.07;;
64857;SDS011;51335;51.148;6.950;2023-04-24T02:58:09;11.65;;;5.88;;
64857;SDS011;51335;51.148;6.950;2023-04-24T02:58:40;9.18;;;5.88;;
64857;SDS011;51335;51.148;6.950;2023-04-24T02:59:10;11.90;;;6.45;;
64857;SDS011;51335;51.148;6.950;2023-04-24T02:59:40;11.35;;;6.28;;
64857;SDS011;51335;51.148;6.950;2023-04-24T03:00:11;12.80;;;6.57;;
64857;SDS011;51335;51.148;6.950;2023-04-24T03:00:41;12.65;;;6.10;;
64857;SDS011;51335;51.148;6.950;2023-04-24T03:01:12;10.27;;;6.30;;
64857;SDS011;51335;51.148;6.950;2023-04-24T03:01:42;12.30;;;6.45;;
64857;SDS011;51335;51.148;6.950;2023-04-24T03:02:12;10.90;;;6.82;;
64857;SDS011;51335;51.148;6.950;2023-04-24T03:02:42;9.52;;;6.40;;
64857;SDS011;51335;51.148;6.950;2023-04-24T03:03:13;9.98;;;6.32;;
64857;SDS011;51335;51.148;6.950;2023-04-24T03:03:43;8.65;;;6.32;;